createdAt,value
2022-07-31T12:10:01.882Z,32.15
2022-07-31T12:10:56.863Z,32.05
2022-07-31T12:11:56.902Z,32.02
2022-07-31T12:12:57.063Z,31.87
2022-07-31T12:13:56.919Z,31.62
2022-07-31T12:14:57.133Z,31.30
2022-07-31T12:15:56.946Z,31.15
2022-07-31T12:16:56.917Z,31.11
2022-07-31T12:17:56.994Z,30.97
2022-07-31T12:18:56.988Z,30.73
2022-07-31T12:19:58.127Z,30.59
2022-07-31T12:20:56.926Z,30.55
2022-07-31T12:21:56.953Z,30.37
2022-07-31T12:22:56.950Z,30.40
2022-07-31T12:23:56.951Z,30.48
2022-07-31T12:24:56.926Z,30.50
2022-07-31T12:25:56.959Z,30.66
2022-07-31T12:26:57.015Z,30.79
2022-07-31T12:27:56.958Z,30.90
2022-07-31T12:28:56.978Z,31.02
2022-07-31T12:29:56.993Z,31.34
2022-07-31T12:30:56.991Z,31.57
2022-07-31T12:31:57.061Z,31.72
2022-07-31T12:32:56.993Z,31.80
2022-07-31T12:33:56.994Z,31.84
2022-07-31T12:34:57.043Z,31.76
2022-07-31T12:35:57.372Z,31.93
2022-07-31T12:36:56.977Z,32.05
2022-07-31T12:37:57.072Z,32.15
2022-07-31T12:38:57.006Z,31.96
2022-07-31T12:40:00.853Z,31.64
2022-07-31T12:40:57.000Z,31.57
2022-07-31T12:41:56.987Z,31.38
2022-07-31T12:42:57.001Z,31.46
2022-07-31T12:43:57.028Z,31.58
2022-07-31T12:44:57.299Z,31.63
2022-07-31T12:45:57.023Z,31.75
2022-07-31T12:46:57.005Z,31.86
2022-07-31T12:47:57.037Z,31.84
2022-07-31T12:48:57.064Z,32.00
2022-07-31T12:49:57.171Z,31.96
2022-07-31T12:50:57.047Z,31.79
2022-07-31T12:51:57.054Z,31.45
2022-07-31T12:52:57.020Z,31.29
2022-07-31T12:53:57.054Z,31.12
2022-07-31T12:54:57.225Z,31.17
2022-07-31T12:55:57.065Z,30.77
2022-07-31T12:56:57.073Z,30.92
2022-07-31T12:57:57.008Z,30.74
2022-07-31T12:58:57.086Z,30.73
2022-07-31T12:59:57.045Z,30.50
2022-07-31T13:00:57.144Z,30.72
2022-07-31T13:01:57.187Z,30.46
2022-07-31T13:02:57.065Z,30.53
2022-07-31T13:03:57.054Z,30.41
2022-07-31T13:04:57.376Z,30.28
2022-07-31T13:05:57.046Z,30.34
2022-07-31T13:06:57.092Z,30.01
2022-07-31T13:07:57.106Z,29.88
2022-07-31T13:08:57.099Z,29.81
2022-07-31T13:10:18.980Z,29.75
2022-07-31T13:10:57.105Z,29.90
2022-07-31T13:11:57.989Z,29.85
2022-07-31T13:12:57.077Z,29.84
2022-07-31T13:13:57.107Z,29.95
2022-07-31T13:14:57.131Z,30.05
2022-07-31T13:15:57.108Z,30.31
2022-07-31T13:16:57.091Z,30.42
2022-07-31T13:17:57.124Z,30.49
2022-07-31T13:18:57.141Z,30.60
2022-07-31T13:19:57.132Z,30.61
2022-07-31T13:20:57.125Z,30.47
2022-07-31T13:21:57.230Z,30.50
2022-07-31T13:22:57.170Z,30.06
2022-07-31T13:23:57.146Z,29.95
2022-07-31T13:24:57.135Z,29.88
2022-07-31T13:25:57.168Z,30.25
2022-07-31T13:26:57.101Z,30.06
2022-07-31T13:27:57.159Z,29.99
2022-07-31T13:28:57.131Z,30.06
2022-07-31T13:29:57.108Z,30.14
2022-07-31T13:30:57.136Z,30.18
2022-07-31T13:31:57.159Z,30.24
2022-07-31T13:32:57.234Z,30.26
2022-07-31T13:33:57.145Z,30.26
2022-07-31T13:35:27.191Z,30.26
2022-07-31T13:35:57.167Z,30.02
2022-07-31T13:36:57.109Z,30.08
2022-07-31T13:37:57.208Z,30.00
2022-07-31T13:38:57.232Z,29.94
2022-07-31T13:39:57.399Z,29.88
2022-07-31T13:40:57.155Z,29.79
2022-07-31T13:41:57.160Z,29.71
2022-07-31T13:42:57.138Z,29.72
2022-07-31T13:44:00.557Z,29.71
2022-07-31T13:44:59.665Z,29.68
2022-07-31T13:45:57.294Z,29.58
2022-07-31T13:46:57.291Z,29.48
2022-07-31T13:48:00.160Z,29.33
2022-07-31T13:48:57.353Z,29.30
2022-07-31T13:49:57.712Z,29.17
2022-07-31T13:50:57.390Z,29.12
2022-07-31T13:51:57.329Z,29.10
2022-07-31T13:52:57.436Z,29.02
2022-07-31T13:53:57.376Z,29.02
2022-07-31T13:54:57.682Z,28.92
2022-07-31T13:55:57.361Z,28.85
2022-07-31T13:56:57.349Z,28.70
2022-07-31T13:57:59.753Z,28.73
2022-07-31T13:58:57.368Z,28.77
2022-07-31T13:59:57.824Z,28.79
2022-07-31T14:01:00.294Z,28.78
2022-07-31T14:02:03.087Z,28.75
2022-07-31T14:02:57.461Z,28.76
2022-07-31T14:03:57.412Z,28.73
2022-07-31T14:04:57.391Z,28.66
2022-07-31T14:05:57.402Z,28.67
2022-07-31T14:06:57.396Z,28.64
2022-07-31T14:08:00.346Z,28.60
2022-07-31T14:08:57.371Z,28.54
2022-07-31T14:09:57.456Z,28.49
2022-07-31T14:10:57.421Z,28.49
2022-07-31T14:11:57.397Z,28.40
2022-07-31T14:12:57.417Z,28.31
2022-07-31T14:13:57.454Z,28.36
2022-07-31T14:14:57.414Z,28.41
2022-07-31T14:15:57.499Z,28.37
2022-07-31T14:16:57.395Z,28.40
2022-07-31T14:17:57.521Z,28.38
2022-07-31T14:18:57.435Z,28.40
2022-07-31T14:19:57.512Z,28.45
2022-07-31T14:20:57.447Z,28.51
2022-07-31T14:21:57.668Z,28.50
2022-07-31T14:22:57.452Z,28.57
2022-07-31T14:23:57.495Z,28.64
2022-07-31T14:24:57.445Z,28.72
2022-07-31T14:25:57.465Z,28.88
2022-07-31T14:26:57.434Z,28.98
2022-07-31T14:27:57.485Z,29.04
2022-07-31T14:28:57.450Z,29.09
2022-07-31T14:29:57.511Z,29.17
2022-07-31T14:30:57.446Z,29.29
2022-07-31T14:31:57.479Z,29.23
2022-07-31T14:32:57.441Z,29.24
2022-07-31T14:33:57.485Z,29.21
2022-07-31T14:34:57.561Z,29.23
2022-07-31T14:35:57.463Z,29.28
2022-07-31T14:36:57.486Z,29.32
2022-07-31T14:37:59.951Z,29.34
2022-07-31T14:38:57.469Z,29.34
2022-07-31T14:39:57.655Z,29.40
2022-07-31T14:40:57.634Z,29.42
2022-07-31T14:41:57.563Z,29.42
2022-07-31T14:42:57.506Z,29.49
2022-07-31T14:43:57.523Z,29.46
2022-07-31T14:44:57.868Z,29.59
2022-07-31T14:45:57.573Z,29.67
2022-07-31T14:46:57.519Z,29.69
2022-07-31T14:47:57.512Z,29.88
2022-07-31T14:48:57.571Z,30.02
2022-07-31T14:50:07.430Z,30.10
2022-07-31T14:50:57.501Z,29.93
2022-07-31T14:51:57.530Z,29.89
2022-07-31T14:52:57.559Z,30.03
2022-07-31T14:53:57.546Z,30.04
2022-07-31T14:54:57.537Z,30.08
2022-07-31T14:56:03.912Z,29.97
2022-07-31T14:57:00.847Z,29.73
2022-07-31T14:57:57.508Z,29.81
2022-07-31T14:58:58.917Z,29.91
2022-07-31T14:59:57.518Z,29.91
2022-07-31T15:00:57.539Z,29.81
2022-07-31T15:01:57.563Z,29.77
2022-07-31T15:02:57.605Z,29.74
2022-07-31T15:03:57.576Z,29.85
2022-07-31T15:04:57.554Z,29.87
2022-07-31T15:06:49.341Z,29.94
2022-07-31T15:07:13.027Z,30.07
2022-07-31T15:07:57.569Z,30.13
2022-07-31T15:08:57.538Z,30.24
2022-07-31T15:09:57.573Z,30.34
2022-07-31T15:10:57.539Z,30.39
2022-07-31T15:12:00.506Z,30.37
2022-07-31T15:12:57.587Z,30.17
2022-07-31T15:13:57.549Z,30.12
2022-07-31T15:14:57.589Z,30.18
2022-07-31T15:15:57.565Z,30.15
2022-07-31T15:16:57.595Z,30.01
2022-07-31T15:17:57.576Z,29.90
2022-07-31T15:18:57.618Z,29.81
2022-07-31T15:19:57.691Z,29.88
2022-07-31T15:20:57.608Z,29.85
2022-07-31T15:22:09.831Z,29.87
2022-07-31T15:22:57.610Z,29.89
2022-07-31T15:23:57.691Z,29.90
2022-07-31T15:24:57.610Z,29.83
2022-07-31T15:25:57.597Z,29.87
2022-07-31T15:26:57.660Z,29.88
2022-07-31T15:27:57.593Z,29.85
2022-07-31T15:28:57.636Z,29.76
2022-07-31T15:30:05.704Z,29.74
